Aviation Digital Data Service (ADDS)

Output produced by METARs form (1556 UTC 25 July 2016)
found at http://aviationweather.gov/adds/metars/
 
KDET 251121Z 2512/2612 27008KT P6SM BKN040 OVC100 
     FM251400 28012KT P6SM BKN050 
     FM251700 28011G18KT P6SM SCT060 
     FM260100 30006KT P6SM SKC